Ada, MI

7:56 PM EDT on September 01, 2014 (GMT -0400)
Timber Canyon | Change Station
CLOSE
Current Station
Personal Weather Station
Location: Ada, MI
Elevation: 755 ft
Nearby Weather Stations

Elev 755 ft 42.93 °N, 85.48 °W | Updated 1 second ago

Mostly Cloudy
Mostly Cloudy
75.3 °F
Feels Like 76 °F
N
0.0
Wind Variable Wind from West
Gusts 1.0 mph

Today
High -- | Low -- °F
--% Chance of Precip.
Yesterday
High -- | Low -- °F
Precip. -- in
7:06 AM 8:16 PM
Waxing Crescent, 45% visible
Pressure 29.74 in
Visibility 10.0 miles
Clouds Scattered Clouds 3200 ft
Scattered Clouds 10000 ft
Mostly Cloudy 25000 ft
Heat Index 76 °F
Dew Point 69 °F
Humidity 81%
Rainfall 0.12 in
Snow Depth Not available.
UV 0 out of 12
Pollen 9.10 out of 12
Ozone Good
PM2.5 Good
Flu Activity Not available.
METAR KGRR 012253Z 25016G24KT 10SM SCT032 SCT100 BKN250 27/21 A2976 RMK AO2 PK WND 25028/2207 SLP071 T02670211 $

More Conditions Fewer Conditions

Pressure 29.74 in
Visibility 10.0 miles
Clouds Scattered Clouds 3200 ft
Scattered Clouds 10000 ft
Mostly Cloudy 25000 ft
Heat Index 76 °F
Dew Point 69 °F
Humidity 81%
Rainfall 0.12 in
Snow Depth Not available.
UV 0 out of 12
Pollen 9.10 out of 12
Ozone Good
PM2.5 Good
Flu Activity Not available.
METAR KGRR 012253Z 25016G24KT 10SM SCT032 SCT100 BKN250 27/21 A2976 RMK AO2 PK WND 25028/2207 SLP071 T02670211 $

More Conditions Fewer Conditions

10-Day Weather Forecast

Almanac

Astronomy

Sep. 01, 2014 Rise Set
Actual Time 7:06 AM EDT 8:16 PM EDT
Civil Twilight 6:37 AM EDT 8:45 PM EDT
Nautical Twilight 6:02 AM EDT 9:20 PM EDT
Astronomical Twilight 5:25 AM EDT 9:57 PM EDT
Moon 2:01 PM EDT No Moon Set
Length of Visible Light 14h 08m
Length of Day
13h 10m
Tomorrow will be 2m 48s shorter.
Waxing Crescent, 45% of the Moon is Illuminated
Today
Waxing Crescent
Sep 2
First Quarter
Sep 8
Full
Sep 15
Last Quarter
Sep 24
New

Today's Extremes

State Highs State Lows

Community

WunderPhotos

Upload Photos

1,749,440 photos uploaded!

Nearby

Air Quality

  Air Quality AQ Index Pollutant
Yesterday Good
OZONE
Yesterday Good
PM2.5
Current Good
OZONE
Current Good
PM2.5
Monday Good
OZONE
Monday Good
PM2.5
Tuesday Good
OZONE
Tuesday Good
PM2.5

Snow Depth

Station Depth Elevation
No new snow has been reported.

Earthquake Activity

City Distance Mag. Time & Date
No recent earthquake activity has been reported nearby.
Minimum magnitude displayed is 2.5.

Coastal Water Temperatures

Place Temperature
No Stations Reporting

Nearby Weather Stations